Hubbell, Michigan
Current Conditions -  °F | °C
As of 8:53 AM on Thursday 30 Oct 2014 (Local Time) from KCMX Reporting Station
Overcast Overcast  
Wind Chill: 32°   Ceiling: 700
Heat Index: 38°   Visibility: 9mi
Dew Point: 35°   Wind: 8mph
Humidity: 89%   Direction: 250°WSW
Pressure: 30.01"   Gusts: NA
Location:  47.17°N, 88.43°W
Report Text: KCMX 301253Z AUTO 25007KT 9SM OVC007 03/02 A3001 RMK AO2 RAE35 SLP171 P0000 T00330017
Loading
Personal Weather Stations






























Interactive Weather Map
Tropical Storm Tracking
New forecast layout! Learn more

10-Day Weather Forecast

Advertisements
Track Severe Weather on mobile